PWSweather.com
Personal Weather Stations
Station Observations
SHAHALMS1
Eftra, Falkenberg, HA

EftraFalkenberg, HA

Lat: 56.85, Lon: 12.65

Elevation: 140

Station Type:

http://hem.passagen.se/risarp101

High Low Average
Temperature 72.7°F22.6°C 57.4°F14.1°C 64.8°F18.2°C
Dew Point 64.4°F18.0°C 51.3°F10.7°C 57.1°F13.9°C
Winds 7.7 mph 12.4 kmh Calm Calm 3.0 mph SE4.8 kmh SE
Wind Gusts 16.1 mph25.9 kmh -- 6.0 mph9.7 kmh
Humidity 96% 55% 77%
Pressure 29.77 in1008.1 mb 29.68 in1005.1 mb -
Precipitation 0.06 in1.5 mm - -
Hour Temp Dew Point Humidity Winds Wind Gusts Pressure Precip Precip Rate Daily Precip Total
12:00 AM 60.3°F15.7°C 55.4°F13.0°C 84% Calm Calm -- 29.77 in1008.1 mb 0.00 in0.0 mm 0.00 in0.0 mm 0.00 in0.0 mm
12:10 AM 60.1°F15.6°C 55.2°F12.9°C 84% Calm Calm -- 29.77 in1008.1 mb 0.00 in0.0 mm 0.00 in0.0 mm 0.00 in0.0 mm
12:20 AM 59.9°F15.5°C 55.4°F13.0°C 85% 0.3 mph E0.5 kmh E 3.9 mph6.3 kmh 29.77 in1008.1 mb 0.00 in0.0 mm 0.00 in0.0 mm 0.00 in0.0 mm
12:30 AM 59.7°F15.4°C 55.2°F12.9°C 85% 1.0 mph SE1.6 kmh SE 6.1 mph9.8 kmh 29.77 in1008.1 mb 0.00 in0.0 mm 0.00 in0.0 mm 0.00 in0.0 mm
12:40 AM 59.4°F15.2°C 55.2°F12.9°C 86% 1.5 mph E2.4 kmh E 5.7 mph9.2 kmh 29.77 in1008.1 mb 0.00 in0.0 mm 0.00 in0.0 mm 0.00 in0.0 mm
12:50 AM 59.2°F15.1°C 55.3°F12.9°C 87% 0.2 mph E0.3 kmh E 4.7 mph7.6 kmh 29.77 in1008.1 mb 0.00 in0.0 mm 0.00 in0.0 mm 0.00 in0.0 mm
01:00 AM 59.0°F15.0°C 55.1°F12.8°C 87% 2.2 mph ESE3.5 kmh ESE 6.8 mph10.9 kmh 29.74 in1007.1 mb 0.00 in0.0 mm 0.00 in0.0 mm 0.00 in0.0 mm
01:10 AM 59.0°F15.0°C 55.1°F12.8°C 87% 0.8 mph ESE1.3 kmh ESE 5.7 mph9.2 kmh 29.74 in1007.1 mb 0.00 in0.0 mm 0.00 in0.0 mm 0.00 in0.0 mm
01:20 AM 59.0°F15.0°C 55.4°F13.0°C 88% 0.3 mph E0.5 kmh E 5.0 mph8.0 kmh 29.77 in1008.1 mb 0.00 in0.0 mm 0.00 in0.0 mm 0.00 in0.0 mm
01:30 AM 58.8°F14.9°C 55.6°F13.1°C 89% 1.1 mph E1.8 kmh E 5.0 mph8.0 kmh 29.77 in1008.1 mb 0.00 in0.0 mm 0.00 in0.0 mm 0.00 in0.0 mm
01:40 AM 58.8°F14.9°C 55.6°F13.1°C 89% Calm Calm -- 29.77 in1008.1 mb 0.00 in0.0 mm 0.00 in0.0 mm 0.00 in0.0 mm
01:50 AM 58.8°F14.9°C 55.6°F13.1°C 89% Calm Calm -- 29.77 in1008.1 mb 0.00 in0.0 mm 0.00 in0.0 mm 0.00 in0.0 mm
02:00 AM 58.8°F14.9°C 55.6°F13.1°C 89% 0.3 mph E0.5 kmh E 3.6 mph5.8 kmh 29.77 in1008.1 mb 0.00 in0.0 mm 0.00 in0.0 mm 0.00 in0.0 mm
02:10 AM 58.8°F14.9°C 55.6°F13.1°C 89% 1.1 mph E1.8 kmh E 6.1 mph9.8 kmh 29.77 in1008.1 mb 0.00 in0.0 mm 0.00 in0.0 mm 0.00 in0.0 mm
02:20 AM 58.8°F14.9°C 55.9°F13.3°C 90% 3.3 mph ESE5.3 kmh ESE 6.4 mph10.3 kmh 29.77 in1008.1 mb 0.00 in0.0 mm 0.00 in0.0 mm 0.00 in0.0 mm
02:30 AM 58.8°F14.9°C 55.9°F13.3°C 90% 1.7 mph ESE2.7 kmh ESE 6.8 mph10.9 kmh 29.77 in1008.1 mb 0.00 in0.0 mm 0.00 in0.0 mm 0.00 in0.0 mm
02:40 AM 58.6°F14.8°C 55.7°F13.2°C 90% 5.2 mph ESE8.4 kmh ESE 8.6 mph13.8 kmh 29.77 in1008.1 mb 0.00 in0.0 mm 0.00 in0.0 mm 0.00 in0.0 mm
02:50 AM 58.3°F14.6°C 55.4°F13.0°C 90% 5.8 mph ESE9.3 kmh ESE 8.9 mph14.3 kmh 29.74 in1007.1 mb 0.00 in0.0 mm 0.00 in0.0 mm 0.00 in0.0 mm
03:00 AM 57.9°F14.4°C 55.0°F12.8°C 90% 4.3 mph ESE6.9 kmh ESE 7.9 mph12.7 kmh 29.74 in1007.1 mb 0.00 in0.0 mm 0.00 in0.0 mm 0.00 in0.0 mm
03:10 AM 57.7°F14.3°C 55.1°F12.8°C 91% 2.8 mph SE4.5 kmh SE 8.6 mph13.8 kmh 29.74 in1007.1 mb 0.00 in0.0 mm 0.00 in0.0 mm 0.00 in0.0 mm
03:20 AM 57.4°F14.1°C 54.8°F12.7°C 91% 2.3 mph SE3.7 kmh SE 6.8 mph10.9 kmh 29.74 in1007.1 mb 0.00 in0.0 mm 0.00 in0.0 mm 0.00 in0.0 mm
03:30 AM 57.6°F14.2°C 55.3°F12.9°C 92% 0.1 mph SE0.2 kmh SE 3.6 mph5.8 kmh 29.74 in1007.1 mb 0.00 in0.0 mm 0.00 in0.0 mm 0.00 in0.0 mm
03:40 AM 58.1°F14.5°C 56.1°F13.4°C 93% 3.8 mph SE6.1 kmh SE 10.0 mph16.1 kmh 29.74 in1007.1 mb 0.00 in0.0 mm 0.00 in0.0 mm 0.00 in0.0 mm
03:50 AM 58.1°F14.5°C 56.4°F13.6°C 94% 3.4 mph SE5.5 kmh SE 9.3 mph15.0 kmh 29.71 in1006.1 mb 0.00 in0.0 mm 0.00 in0.0 mm 0.00 in0.0 mm
04:00 AM 58.3°F14.6°C 56.6°F13.7°C 94% 4.7 mph ESE7.6 kmh ESE 9.3 mph15.0 kmh 29.71 in1006.1 mb 0.00 in0.0 mm 0.00 in0.0 mm 0.00 in0.0 mm
04:10 AM 58.3°F14.6°C 56.6°F13.7°C 94% 4.5 mph SE7.2 kmh SE 8.6 mph13.8 kmh 29.71 in1006.1 mb 0.00 in0.0 mm 0.00 in0.0 mm 0.00 in0.0 mm
04:20 AM 58.1°F14.5°C 56.4°F13.6°C 94% 5.1 mph ESE8.2 kmh ESE 8.9 mph14.3 kmh 29.71 in1006.1 mb 0.00 in0.0 mm 0.00 in0.0 mm 0.00 in0.0 mm
04:30 AM 58.1°F14.5°C 56.4°F13.6°C 94% 4.6 mph SE7.4 kmh SE 9.3 mph15.0 kmh 29.71 in1006.1 mb 0.00 in0.0 mm 0.00 in0.0 mm 0.00 in0.0 mm
04:40 AM 58.3°F14.6°C 56.9°F13.8°C 95% 5.7 mph SE9.2 kmh SE 9.7 mph15.6 kmh 29.71 in1006.1 mb 0.00 in0.0 mm 0.00 in0.0 mm 0.00 in0.0 mm
04:50 AM 58.6°F14.8°C 57.2°F14.0°C 95% 5.5 mph SE8.9 kmh SE 9.7 mph15.6 kmh 29.71 in1006.1 mb 0.00 in0.0 mm 0.00 in0.0 mm 0.00 in0.0 mm
05:00 AM 58.6°F14.8°C 57.2°F14.0°C 95% 6.5 mph ESE10.5 kmh ESE 10.4 mph16.7 kmh 29.71 in1006.1 mb 0.06 in1.5 mm 0.07 in1.8 mm 0.06 in1.5 mm
05:10 AM 58.6°F14.8°C 57.2°F14.0°C 95% 6.5 mph SE10.5 kmh SE 10.4 mph16.7 kmh 29.71 in1006.1 mb 0.06 in1.5 mm 0.00 in0.0 mm 0.06 in1.5 mm
05:20 AM 58.6°F14.8°C 57.2°F14.0°C 95% 2.2 mph SE3.5 kmh SE 8.6 mph13.8 kmh 29.71 in1006.1 mb 0.06 in1.5 mm 0.00 in0.0 mm 0.06 in1.5 mm
05:30 AM 59.0°F15.0°C 57.6°F14.2°C 95% 4.3 mph SE6.9 kmh SE 8.9 mph14.3 kmh 29.74 in1007.1 mb 0.06 in1.5 mm 0.00 in0.0 mm 0.06 in1.5 mm
05:40 AM 59.2°F15.1°C 57.7°F14.3°C 95% 1.5 mph ESE2.4 kmh ESE 6.4 mph10.3 kmh 29.74 in1007.1 mb 0.06 in1.5 mm 0.00 in0.0 mm 0.06 in1.5 mm
05:50 AM 59.2°F15.1°C 57.7°F14.3°C 95% 3.8 mph E6.1 kmh E 9.7 mph15.6 kmh 29.71 in1006.1 mb 0.06 in1.5 mm 0.00 in0.0 mm 0.06 in1.5 mm
06:00 AM 59.4°F15.2°C 57.9°F14.4°C 95% 4.0 mph ESE6.4 kmh ESE 7.5 mph12.1 kmh 29.71 in1006.1 mb 0.00 in0.0 mm 0.00 in0.0 mm 0.06 in1.5 mm
06:10 AM 59.9°F15.5°C 58.5°F14.7°C 95% 3.5 mph SE5.6 kmh SE 12.5 mph20.1 kmh 29.71 in1006.1 mb 0.00 in0.0 mm 0.00 in0.0 mm 0.06 in1.5 mm
06:20 AM 60.6°F15.9°C 59.5°F15.3°C 96% 3.3 mph S5.3 kmh S 12.2 mph19.6 kmh 29.71 in1006.1 mb 0.00 in0.0 mm 0.00 in0.0 mm 0.06 in1.5 mm
06:30 AM 61.0°F16.1°C 59.8°F15.4°C 96% 1.4 mph S2.3 kmh S 7.5 mph12.1 kmh 29.74 in1007.1 mb 0.00 in0.0 mm 0.00 in0.0 mm 0.06 in1.5 mm
06:40 AM 61.3°F16.3°C 60.2°F15.7°C 96% 2.4 mph SE3.9 kmh SE 5.4 mph8.7 kmh 29.74 in1007.1 mb 0.00 in0.0 mm 0.00 in0.0 mm 0.06 in1.5 mm
06:50 AM 62.1°F16.7°C 60.9°F16.1°C 96% 2.8 mph E4.5 kmh E 6.4 mph10.3 kmh 29.71 in1006.1 mb 0.00 in0.0 mm 0.00 in0.0 mm 0.06 in1.5 mm
07:00 AM 62.8°F17.1°C 61.6°F16.4°C 96% 4.4 mph E7.1 kmh E 6.8 mph10.9 kmh 29.71 in1006.1 mb 0.00 in0.0 mm 0.00 in0.0 mm 0.06 in1.5 mm
07:10 AM 63.0°F17.2°C 61.8°F16.6°C 96% 4.1 mph E6.6 kmh E 8.9 mph14.3 kmh 29.71 in1006.1 mb 0.00 in0.0 mm 0.00 in0.0 mm 0.06 in1.5 mm
07:20 AM 63.3°F17.4°C 62.2°F16.8°C 96% 2.2 mph SE3.5 kmh SE 7.9 mph12.7 kmh 29.71 in1006.1 mb 0.00 in0.0 mm 0.00 in0.0 mm 0.06 in1.5 mm
07:30 AM 63.9°F17.7°C 62.7°F17.1°C 96% Calm Calm -- 29.71 in1006.1 mb 0.00 in0.0 mm 0.00 in0.0 mm 0.06 in1.5 mm
07:40 AM 64.4°F18.0°C 62.9°F17.2°C 95% Calm Calm -- 29.71 in1006.1 mb 0.00 in0.0 mm 0.00 in0.0 mm 0.06 in1.5 mm
07:50 AM 64.6°F18.1°C 63.1°F17.3°C 95% 0.5 mph SE0.8 kmh SE 4.7 mph7.6 kmh 29.71 in1006.1 mb 0.00 in0.0 mm 0.00 in0.0 mm 0.06 in1.5 mm
08:00 AM 65.1°F18.4°C 63.7°F17.6°C 95% 1.1 mph S1.8 kmh S 5.7 mph9.2 kmh 29.74 in1007.1 mb 0.00 in0.0 mm 0.00 in0.0 mm 0.06 in1.5 mm
08:10 AM 65.7°F18.7°C 63.9°F17.7°C 94% 1.0 mph SE1.6 kmh SE 8.6 mph13.8 kmh 29.74 in1007.1 mb 0.00 in0.0 mm 0.00 in0.0 mm 0.06 in1.5 mm
08:20 AM 66.0°F18.9°C 64.2°F17.9°C 94% 0.9 mph E1.4 kmh E 5.7 mph9.2 kmh 29.71 in1006.1 mb 0.00 in0.0 mm 0.00 in0.0 mm 0.06 in1.5 mm
08:30 AM 66.2°F19.0°C 64.1°F17.8°C 93% 2.4 mph E3.9 kmh E 6.8 mph10.9 kmh 29.71 in1006.1 mb 0.00 in0.0 mm 0.00 in0.0 mm 0.06 in1.5 mm
08:40 AM 66.6°F19.2°C 64.2°F17.9°C 92% 4.1 mph SE6.6 kmh SE 12.2 mph19.6 kmh 29.71 in1006.1 mb 0.00 in0.0 mm 0.00 in0.0 mm 0.06 in1.5 mm
08:50 AM 66.9°F19.4°C 64.2°F17.9°C 91% 4.3 mph SE6.9 kmh SE 10.4 mph16.7 kmh 29.71 in1006.1 mb 0.00 in0.0 mm 0.00 in0.0 mm 0.06 in1.5 mm
09:00 AM 67.5°F19.7°C 64.4°F18.0°C 90% 4.1 mph SSE6.6 kmh SSE 9.3 mph15.0 kmh 29.68 in1005.1 mb 0.00 in0.0 mm 0.00 in0.0 mm 0.06 in1.5 mm
09:10 AM 67.3°F19.6°C 63.3°F17.4°C 87% 6.6 mph S10.6 kmh S 13.6 mph21.9 kmh 29.68 in1005.1 mb 0.00 in0.0 mm 0.00 in0.0 mm 0.06 in1.5 mm
09:20 AM 68.0°F20.0°C 64.0°F17.8°C 87% 3.5 mph SSE5.6 kmh SSE 10.4 mph16.7 kmh 29.68 in1005.1 mb 0.00 in0.0 mm 0.00 in0.0 mm 0.06 in1.5 mm
09:30 AM 67.5°F19.7°C 62.8°F17.1°C 85% 5.2 mph S8.4 kmh S 14.7 mph23.7 kmh 29.68 in1005.1 mb 0.00 in0.0 mm 0.00 in0.0 mm 0.06 in1.5 mm
09:40 AM 67.8°F19.9°C 63.1°F17.3°C 85% 5.9 mph S9.5 kmh S 12.5 mph20.1 kmh 29.68 in1005.1 mb 0.00 in0.0 mm 0.00 in0.0 mm 0.06 in1.5 mm
09:50 AM 68.0°F20.0°C 62.6°F17.0°C 83% 5.5 mph S8.9 kmh S 12.9 mph20.8 kmh 29.68 in1005.1 mb 0.00 in0.0 mm 0.00 in0.0 mm 0.06 in1.5 mm
10:00 AM 68.5°F20.3°C 63.2°F17.3°C 83% 5.0 mph S8.0 kmh S 12.2 mph19.6 kmh 29.68 in1005.1 mb 0.00 in0.0 mm 0.00 in0.0 mm 0.06 in1.5 mm
10:10 AM 68.5°F20.3°C 62.8°F17.1°C 82% 4.0 mph S6.4 kmh S 10.0 mph16.1 kmh 29.68 in1005.1 mb 0.00 in0.0 mm 0.00 in0.0 mm 0.06 in1.5 mm
10:20 AM 68.0°F20.0°C 61.9°F16.6°C 81% 4.6 mph S7.4 kmh S 11.5 mph18.5 kmh 29.68 in1005.1 mb 0.00 in0.0 mm 0.00 in0.0 mm 0.06 in1.5 mm
10:30 AM 68.4°F20.2°C 62.6°F17.0°C 82% 3.1 mph S5.0 kmh S 8.6 mph13.8 kmh 29.68 in1005.1 mb 0.00 in0.0 mm 0.00 in0.0 mm 0.06 in1.5 mm
10:40 AM 69.1°F20.6°C 63.7°F17.6°C 83% 4.2 mph WSW6.8 kmh WSW 11.5 mph18.5 kmh 29.68 in1005.1 mb 0.00 in0.0 mm 0.00 in0.0 mm 0.06 in1.5 mm
10:50 AM 70.0°F21.1°C 63.2°F17.3°C 79% 5.2 mph SW8.4 kmh SW 12.5 mph20.1 kmh 29.68 in1005.1 mb 0.00 in0.0 mm 0.00 in0.0 mm 0.06 in1.5 mm
11:00 AM 70.2°F21.2°C 62.2°F16.8°C 76% 5.2 mph W8.4 kmh W 11.5 mph18.5 kmh 29.68 in1005.1 mb 0.00 in0.0 mm 0.00 in0.0 mm 0.06 in1.5 mm
11:10 AM 70.5°F21.4°C 62.2°F16.8°C 75% 5.9 mph W9.5 kmh W 11.8 mph19.0 kmh 29.68 in1005.1 mb 0.00 in0.0 mm 0.00 in0.0 mm 0.06 in1.5 mm
11:20 AM 70.0°F21.1°C 61.7°F16.5°C 75% 4.6 mph W7.4 kmh W 14.7 mph23.7 kmh 29.71 in1006.1 mb 0.00 in0.0 mm 0.00 in0.0 mm 0.06 in1.5 mm
11:30 AM 70.9°F21.6°C 61.8°F16.6°C 73% 4.3 mph NW6.9 kmh NW 11.1 mph17.9 kmh 29.68 in1005.1 mb 0.00 in0.0 mm 0.00 in0.0 mm 0.06 in1.5 mm
11:40 AM 71.6°F22.0°C 62.5°F16.9°C 73% 6.4 mph WSW10.3 kmh WSW 12.9 mph20.8 kmh 29.68 in1005.1 mb 0.00 in0.0 mm 0.00 in0.0 mm 0.06 in1.5 mm
11:50 AM 72.1°F22.3°C 61.4°F16.3°C 69% 6.5 mph W10.5 kmh W 16.1 mph25.9 kmh 29.71 in1006.1 mb 0.00 in0.0 mm 0.00 in0.0 mm 0.06 in1.5 mm
12:00 PM 72.0°F22.2°C 61.6°F16.4°C 70% 3.4 mph WNW5.5 kmh WNW 10.0 mph16.1 kmh 29.71 in1006.1 mb 0.00 in0.0 mm 0.00 in0.0 mm 0.06 in1.5 mm
12:10 PM 72.7°F22.6°C 61.9°F16.6°C 69% 5.6 mph W9.0 kmh W 12.5 mph20.1 kmh 29.71 in1006.1 mb 0.00 in0.0 mm 0.00 in0.0 mm 0.06 in1.5 mm
12:20 PM 72.3°F22.4°C 60.7°F15.9°C 67% 4.5 mph W7.2 kmh W 12.2 mph19.6 kmh 29.71 in1006.1 mb 0.00 in0.0 mm 0.00 in0.0 mm 0.06 in1.5 mm
12:30 PM 71.8°F22.1°C 59.8°F15.4°C 66% 3.7 mph NW6.0 kmh NW 10.4 mph16.7 kmh 29.71 in1006.1 mb 0.00 in0.0 mm 0.00 in0.0 mm 0.06 in1.5 mm
12:40 PM 70.7°F21.5°C 58.8°F14.9°C 66% 5.2 mph W8.4 kmh W 6.8 mph10.9 kmh 29.71 in1006.1 mb 0.00 in0.0 mm 0.00 in0.0 mm 0.06 in1.5 mm
12:50 PM 69.8°F21.0°C 57.9°F14.4°C 66% 4.7 mph W7.6 kmh W 6.8 mph10.9 kmh 29.71 in1006.1 mb 0.00 in0.0 mm 0.00 in0.0 mm 0.06 in1.5 mm
01:00 PM 69.4°F20.8°C 57.6°F14.2°C 66% 1.7 mph NW2.7 kmh NW 6.8 mph10.9 kmh 29.71 in1006.1 mb 0.00 in0.0 mm 0.00 in0.0 mm 0.06 in1.5 mm
01:10 PM 69.3°F20.7°C 57.0°F13.9°C 65% Calm Calm -- 29.71 in1006.1 mb 0.00 in0.0 mm 0.00 in0.0 mm 0.06 in1.5 mm
01:20 PM 68.9°F20.5°C 57.1°F13.9°C 66% Calm Calm -- 29.74 in1007.1 mb 0.00 in0.0 mm 0.00 in0.0 mm 0.06 in1.5 mm
01:30 PM 69.3°F20.7°C 57.8°F14.3°C 67% Calm Calm -- 29.71 in1006.1 mb 0.00 in0.0 mm 0.00 in0.0 mm 0.06 in1.5 mm
01:40 PM 69.8°F21.0°C 57.9°F14.4°C 66% Calm Calm -- 29.71 in1006.1 mb 0.00 in0.0 mm 0.00 in0.0 mm 0.06 in1.5 mm
01:50 PM 70.7°F21.5°C 58.4°F14.7°C 65% 3.5 mph W5.6 kmh W 4.3 mph6.9 kmh 29.68 in1005.1 mb 0.00 in0.0 mm 0.00 in0.0 mm 0.06 in1.5 mm
02:00 PM 71.1°F21.7°C 58.3°F14.6°C 64% 3.8 mph W6.1 kmh W 7.9 mph12.7 kmh 29.68 in1005.1 mb 0.00 in0.0 mm 0.00 in0.0 mm 0.06 in1.5 mm
02:10 PM 71.6°F22.0°C 57.9°F14.4°C 62% 6.4 mph NW10.3 kmh NW 7.9 mph12.7 kmh 29.68 in1005.1 mb 0.00 in0.0 mm 0.00 in0.0 mm 0.06 in1.5 mm
02:20 PM 71.8°F22.1°C 58.5°F14.7°C 63% 6.4 mph NW10.3 kmh NW 7.9 mph12.7 kmh 29.68 in1005.1 mb 0.00 in0.0 mm 0.00 in0.0 mm 0.06 in1.5 mm
02:30 PM 72.0°F22.2°C 57.3°F14.1°C 60% 3.2 mph E5.1 kmh E 3.9 mph6.3 kmh 29.68 in1005.1 mb 0.00 in0.0 mm 0.00 in0.0 mm 0.06 in1.5 mm
02:40 PM 72.1°F22.3°C 56.5°F13.6°C 58% 5.6 mph NW9.0 kmh NW 9.7 mph15.6 kmh 29.68 in1005.1 mb 0.00 in0.0 mm 0.00 in0.0 mm 0.06 in1.5 mm
02:50 PM 72.5°F22.5°C 57.4°F14.1°C 59% 7.7 mph S12.4 kmh S 10.0 mph16.1 kmh 29.71 in1006.1 mb 0.00 in0.0 mm 0.00 in0.0 mm 0.06 in1.5 mm
03:00 PM 72.7°F22.6°C 57.0°F13.9°C 58% 7.5 mph SSW12.1 kmh SSW 10.0 mph16.1 kmh 29.68 in1005.1 mb 0.00 in0.0 mm 0.00 in0.0 mm 0.06 in1.5 mm
03:10 PM 72.7°F22.6°C 56.6°F13.7°C 57% 3.5 mph NW5.6 kmh NW 7.9 mph12.7 kmh 29.68 in1005.1 mb 0.00 in0.0 mm 0.00 in0.0 mm 0.06 in1.5 mm
03:20 PM 72.3°F22.4°C 55.7°F13.2°C 56% 3.2 mph NW5.1 kmh NW 3.9 mph6.3 kmh 29.71 in1006.1 mb 0.00 in0.0 mm 0.00 in0.0 mm 0.06 in1.5 mm
03:30 PM 71.6°F22.0°C 55.6°F13.1°C 57% 3.2 mph W5.1 kmh W 3.9 mph6.3 kmh 29.71 in1006.1 mb 0.00 in0.0 mm 0.00 in0.0 mm 0.06 in1.5 mm
03:40 PM 72.1°F22.3°C 56.5°F13.6°C 58% 3.2 mph W5.1 kmh W 3.9 mph6.3 kmh 29.71 in1006.1 mb 0.00 in0.0 mm 0.00 in0.0 mm 0.06 in1.5 mm
03:50 PM 72.3°F22.4°C 56.2°F13.4°C 57% 3.2 mph W5.1 kmh W 3.9 mph6.3 kmh 29.71 in1006.1 mb 0.00 in0.0 mm 0.00 in0.0 mm 0.06 in1.5 mm
04:00 PM 72.1°F22.3°C 56.1°F13.4°C 57% 3.2 mph W5.1 kmh W 3.9 mph6.3 kmh 29.71 in1006.1 mb 0.00 in0.0 mm 0.00 in0.0 mm 0.06 in1.5 mm
04:10 PM 72.0°F22.2°C 55.4°F13.0°C 56% 4.4 mph S7.1 kmh S 5.4 mph8.7 kmh 29.71 in1006.1 mb 0.00 in0.0 mm 0.00 in0.0 mm 0.06 in1.5 mm
04:20 PM 72.0°F22.2°C 55.9°F13.3°C 57% 4.4 mph S7.1 kmh S 5.4 mph8.7 kmh 29.68 in1005.1 mb 0.00 in0.0 mm 0.00 in0.0 mm 0.06 in1.5 mm
04:30 PM 71.8°F22.1°C 55.2°F12.9°C 56% 4.4 mph S7.1 kmh S 5.4 mph8.7 kmh 29.71 in1006.1 mb 0.00 in0.0 mm 0.00 in0.0 mm 0.06 in1.5 mm
04:40 PM 71.8°F22.1°C 55.2°F12.9°C 56% 4.4 mph S7.1 kmh S 5.4 mph8.7 kmh 29.71 in1006.1 mb 0.00 in0.0 mm 0.00 in0.0 mm 0.06 in1.5 mm
04:50 PM 71.8°F22.1°C 55.2°F12.9°C 56% 4.4 mph S7.1 kmh S 5.4 mph8.7 kmh 29.71 in1006.1 mb 0.00 in0.0 mm 0.00 in0.0 mm 0.06 in1.5 mm
05:00 PM 71.8°F22.1°C 55.2°F12.9°C 56% 4.4 mph S7.1 kmh S 5.4 mph8.7 kmh 29.71 in1006.1 mb 0.00 in0.0 mm 0.00 in0.0 mm 0.06 in1.5 mm
05:10 PM 71.8°F22.1°C 54.7°F12.6°C 55% Calm Calm -- 29.71 in1006.1 mb 0.00 in0.0 mm 0.00 in0.0 mm 0.06 in1.5 mm
05:20 PM 71.8°F22.1°C 55.2°F12.9°C 56% Calm Calm -- 29.71 in1006.1 mb 0.00 in0.0 mm 0.00 in0.0 mm 0.06 in1.5 mm
05:30 PM 71.8°F22.1°C 55.2°F12.9°C 56% Calm Calm -- 29.68 in1005.1 mb 0.00 in0.0 mm 0.00 in0.0 mm 0.06 in1.5 mm
05:40 PM 71.6°F22.0°C 55.1°F12.8°C 56% Calm Calm -- 29.68 in1005.1 mb 0.00 in0.0 mm 0.00 in0.0 mm 0.06 in1.5 mm
05:50 PM 71.1°F21.7°C 54.6°F12.6°C 56% Calm Calm -- 29.71 in1006.1 mb 0.00 in0.0 mm 0.00 in0.0 mm 0.06 in1.5 mm
06:00 PM 70.9°F21.6°C 54.9°F12.7°C 57% Calm Calm -- 29.71 in1006.1 mb 0.00 in0.0 mm 0.00 in0.0 mm 0.06 in1.5 mm
06:10 PM 70.5°F21.4°C 55.0°F12.8°C 58% Calm Calm -- 29.71 in1006.1 mb 0.00 in0.0 mm 0.00 in0.0 mm 0.06 in1.5 mm
06:20 PM 69.4°F20.8°C 54.0°F12.2°C 58% Calm Calm -- 29.71 in1006.1 mb 0.00 in0.0 mm 0.00 in0.0 mm 0.06 in1.5 mm
06:30 PM 68.7°F20.4°C 53.8°F12.1°C 59% Calm Calm -- 29.71 in1006.1 mb 0.00 in0.0 mm 0.00 in0.0 mm 0.06 in1.5 mm
06:40 PM 68.4°F20.2°C 53.9°F12.2°C 60% Calm Calm -- 29.71 in1006.1 mb 0.00 in0.0 mm 0.00 in0.0 mm 0.06 in1.5 mm
06:50 PM 68.0°F20.0°C 53.6°F12.0°C 60% Calm Calm -- 29.68 in1005.1 mb 0.00 in0.0 mm 0.00 in0.0 mm 0.06 in1.5 mm
07:00 PM 67.5°F19.7°C 53.5°F11.9°C 61% Calm Calm -- 29.68 in1005.1 mb 0.00 in0.0 mm 0.00 in0.0 mm 0.06 in1.5 mm
07:10 PM 67.1°F19.5°C 53.6°F12.0°C 62% Calm Calm -- 29.68 in1005.1 mb 0.00 in0.0 mm 0.00 in0.0 mm 0.06 in1.5 mm
07:20 PM 66.6°F19.2°C 53.6°F12.0°C 63% Calm Calm -- 29.71 in1006.1 mb 0.00 in0.0 mm 0.00 in0.0 mm 0.06 in1.5 mm
07:30 PM 66.2°F19.0°C 53.7°F12.1°C 64% Calm Calm -- 29.71 in1006.1 mb 0.00 in0.0 mm 0.00 in0.0 mm 0.06 in1.5 mm
07:40 PM 65.7°F18.7°C 54.4°F12.4°C 67% Calm Calm -- 29.71 in1006.1 mb 0.00 in0.0 mm 0.00 in0.0 mm 0.06 in1.5 mm
07:50 PM 65.3°F18.5°C 54.5°F12.5°C 68% Calm Calm -- 29.71 in1006.1 mb 0.00 in0.0 mm 0.00 in0.0 mm 0.06 in1.5 mm
08:00 PM 64.9°F18.3°C 54.5°F12.5°C 69% Calm Calm -- 29.71 in1006.1 mb 0.00 in0.0 mm 0.00 in0.0 mm 0.06 in1.5 mm
08:10 PM 64.8°F18.2°C 54.7°F12.6°C 70% 0.9 mph W1.4 kmh W 3.2 mph5.1 kmh 29.71 in1006.1 mb 0.00 in0.0 mm 0.00 in0.0 mm 0.06 in1.5 mm
08:20 PM 64.4°F18.0°C 54.8°F12.7°C 71% Calm Calm -- 29.68 in1005.1 mb 0.00 in0.0 mm 0.00 in0.0 mm 0.06 in1.5 mm
08:30 PM 64.0°F17.8°C 54.4°F12.4°C 71% Calm Calm -- 29.68 in1005.1 mb 0.00 in0.0 mm 0.00 in0.0 mm 0.06 in1.5 mm
08:40 PM 63.5°F17.5°C 53.9°F12.2°C 71% Calm Calm -- 29.68 in1005.1 mb 0.00 in0.0 mm 0.00 in0.0 mm 0.06 in1.5 mm
08:50 PM 63.0°F17.2°C 53.8°F12.1°C 72% Calm Calm -- 29.68 in1005.1 mb 0.00 in0.0 mm 0.00 in0.0 mm 0.06 in1.5 mm
09:00 PM 62.2°F16.8°C 53.5°F11.9°C 73% Calm Calm -- 29.71 in1006.1 mb 0.00 in0.0 mm 0.00 in0.0 mm 0.06 in1.5 mm
09:10 PM 61.7°F16.5°C 53.0°F11.7°C 73% Calm Calm -- 29.71 in1006.1 mb 0.00 in0.0 mm 0.00 in0.0 mm 0.06 in1.5 mm
09:20 PM 61.2°F16.2°C 52.8°F11.6°C 74% Calm Calm -- 29.71 in1006.1 mb 0.00 in0.0 mm 0.00 in0.0 mm 0.06 in1.5 mm
09:30 PM 60.8°F16.0°C 52.5°F11.4°C 74% Calm Calm -- 29.71 in1006.1 mb 0.00 in0.0 mm 0.00 in0.0 mm 0.06 in1.5 mm
09:40 PM 60.4°F15.8°C 52.5°F11.4°C 75% Calm Calm -- 29.71 in1006.1 mb 0.00 in0.0 mm 0.00 in0.0 mm 0.06 in1.5 mm
09:50 PM 59.7°F15.4°C 51.8°F11.0°C 75% 0.4 mph S0.6 kmh S 2.1 mph3.4 kmh 29.71 in1006.1 mb 0.00 in0.0 mm 0.00 in0.0 mm 0.06 in1.5 mm
10:00 PM 59.4°F15.2°C 51.8°F11.0°C 76% 1.7 mph S2.7 kmh S 2.1 mph3.4 kmh 29.68 in1005.1 mb 0.00 in0.0 mm 0.00 in0.0 mm 0.06 in1.5 mm
10:10 PM 59.2°F15.1°C 51.6°F10.9°C 76% 1.7 mph S2.7 kmh S 2.1 mph3.4 kmh 29.68 in1005.1 mb 0.00 in0.0 mm 0.00 in0.0 mm 0.06 in1.5 mm
10:20 PM 59.0°F15.0°C 51.4°F10.8°C 76% 1.7 mph S2.7 kmh S 2.1 mph3.4 kmh 29.71 in1006.1 mb 0.00 in0.0 mm 0.00 in0.0 mm 0.06 in1.5 mm
10:30 PM 58.6°F14.8°C 51.4°F10.8°C 77% 1.7 mph S2.7 kmh S 2.1 mph3.4 kmh 29.68 in1005.1 mb 0.00 in0.0 mm 0.00 in0.0 mm 0.06 in1.5 mm
10:40 PM 58.5°F14.7°C 51.3°F10.7°C 77% 1.7 mph S2.7 kmh S 2.1 mph3.4 kmh 29.68 in1005.1 mb 0.00 in0.0 mm 0.00 in0.0 mm 0.06 in1.5 mm
10:50 PM 58.3°F14.6°C 51.4°F10.8°C 78% 1.7 mph S2.7 kmh S 2.1 mph3.4 kmh 29.68 in1005.1 mb 0.00 in0.0 mm 0.00 in0.0 mm 0.06 in1.5 mm
11:00 PM 58.3°F14.6°C 51.4°F10.8°C 78% 1.7 mph S2.7 kmh S 2.1 mph3.4 kmh 29.68 in1005.1 mb 0.00 in0.0 mm 0.00 in0.0 mm 0.06 in1.5 mm
11:10 PM 58.1°F14.5°C 51.6°F10.9°C 79% 1.7 mph S2.7 kmh S 2.1 mph3.4 kmh 29.68 in1005.1 mb 0.00 in0.0 mm 0.00 in0.0 mm 0.06 in1.5 mm
11:20 PM 57.7°F14.3°C 51.3°F10.7°C 79% 1.7 mph S2.7 kmh S 2.1 mph3.4 kmh 29.71 in1006.1 mb 0.00 in0.0 mm 0.00 in0.0 mm 0.06 in1.5 mm
11:30 PM 57.4°F14.1°C 51.3°F10.7°C 80% 1.7 mph S2.7 kmh S 2.1 mph3.4 kmh 29.68 in1005.1 mb 0.00 in0.0 mm 0.00 in0.0 mm 0.06 in1.5 mm
11:40 PM 57.4°F14.1°C 51.6°F10.9°C 81% 1.7 mph S2.7 kmh S 2.1 mph3.4 kmh 29.68 in1005.1 mb 0.00 in0.0 mm 0.00 in0.0 mm 0.06 in1.5 mm
11:50 PM 57.4°F14.1°C 52.3°F11.3°C 83% 1.7 mph S2.7 kmh S 2.1 mph3.4 kmh 29.74 in1007.1 mb 0.00 in0.0 mm 0.00 in0.0 mm 0.06 in1.5 mm